createdAt,value
2019-01-18T00:02:00.680Z,99406.47
2019-01-18T00:04:41.972Z,99408.35
2019-01-18T00:07:19.085Z,99410.77
2019-01-18T00:09:51.634Z,99424.13
2019-01-18T00:12:35.550Z,99426.44
2019-01-18T00:15:09.822Z,99428.41
2019-01-18T00:17:51.095Z,99435.70
2019-01-18T00:20:31.015Z,99434.75
2019-01-18T00:23:06.285Z,99427.41
2019-01-18T00:25:39.827Z,99435.82
2019-01-18T00:28:16.059Z,99443.45
2019-01-18T00:30:48.670Z,99437.22
2019-01-18T00:33:24.339Z,99438.91
2019-01-18T00:35:57.326Z,99441.83
2019-01-18T00:38:32.144Z,99449.91
2019-01-18T00:41:11.503Z,99461.33
2019-01-18T00:43:45.302Z,99450.17
2019-01-18T00:46:19.918Z,99468.62
2019-01-18T00:48:53.160Z,99470.78
2019-01-18T00:51:25.638Z,99474.67
2019-01-18T00:53:56.369Z,99473.23
2019-01-18T00:56:28.168Z,99476.63
2019-01-18T00:59:01.268Z,99475.22
2019-01-18T01:01:32.038Z,99481.50
2019-01-18T01:04:02.880Z,99487.15
2019-01-18T01:06:34.798Z,99487.75
2019-01-18T01:09:14.082Z,99496.52
2019-01-18T01:11:45.893Z,99506.36
2019-01-18T01:14:18.108Z,99496.04
2019-01-18T01:16:51.356Z,99503.16
2019-01-18T01:19:23.674Z,99508.40
2019-01-18T01:21:55.324Z,99510.38
2019-01-18T01:24:27.007Z,99509.08
2019-01-18T01:27:03.892Z,99515.44
2019-01-18T01:29:42.916Z,99527.54
2019-01-18T01:32:09.577Z,99533.81
2019-01-18T01:34:45.026Z,99530.98
2019-01-18T01:37:21.769Z,99531.77
2019-01-18T01:39:54.783Z,99541.84
2019-01-18T01:42:26.442Z,99560.53
2019-01-18T01:45:01.303Z,99545.37
2019-01-18T01:47:33.963Z,99562.33
2019-01-18T01:50:05.883Z,99559.48
2019-01-18T01:52:40.802Z,99557.11
2019-01-18T01:55:12.564Z,99558.15
2019-01-18T01:57:45.057Z,99570.66
2019-01-18T02:00:22.357Z,99572.91
2019-01-18T02:02:56.997Z,99573.59
2019-01-18T02:05:30.531Z,99575.95
2019-01-18T02:08:02.226Z,99571.11
2019-01-18T02:10:49.391Z,99562.36
2019-01-18T02:13:40.814Z,99576.07
2019-01-18T02:16:18.878Z,99569.63
2019-01-18T02:18:52.654Z,99585.09
2019-01-18T02:21:26.149Z,99575.08
2019-01-18T02:24:06.501Z,99588.98
2019-01-18T02:26:32.744Z,99588.45
2019-01-18T02:29:07.779Z,99599.61
2019-01-18T02:31:40.158Z,99606.19
2019-01-18T02:34:11.010Z,99610.91
2019-01-18T02:36:44.475Z,99613.58
2019-01-18T02:39:15.188Z,99616.38
2019-01-18T02:41:45.912Z,99621.25
2019-01-18T02:44:16.725Z,99611.70
2019-01-18T02:46:47.482Z,99622.27
2019-01-18T02:49:18.676Z,99630.54
2019-01-18T02:51:49.461Z,99629.75
2019-01-18T02:54:24.628Z,99631.77
2019-01-18T02:57:00.704Z,99634.72
2019-01-18T02:59:35.569Z,99640.20
2019-01-18T03:02:07.142Z,99649.99
2019-01-18T03:04:38.129Z,99649.58
2019-01-18T03:07:13.571Z,99648.02
2019-01-18T03:09:44.891Z,99653.08
2019-01-18T03:12:20.369Z,99662.05
2019-01-18T03:14:51.680Z,99666.27
2019-01-18T03:17:28.172Z,99670.84
2019-01-18T03:20:03.302Z,99676.59
2019-01-18T03:22:35.491Z,99701.48
2019-01-18T03:25:10.607Z,99713.05
2019-01-18T03:27:45.025Z,99732.34
2019-01-18T03:30:22.895Z,99735.45
2019-01-18T03:32:53.851Z,99743.02
2019-01-18T03:35:31.874Z,99749.14
2019-01-18T03:38:05.478Z,99759.31
2019-01-18T03:40:38.703Z,99761.69
2019-01-18T03:43:10.630Z,99774.75
2019-01-18T03:45:42.485Z,99768.33
2019-01-18T03:48:17.677Z,99773.75
2019-01-18T03:50:54.585Z,99780.52
2019-01-18T03:53:26.448Z,99789.71
2019-01-18T03:56:02.319Z,99795.92
2019-01-18T03:58:34.310Z,99808.33
2019-01-18T04:01:09.899Z,99815.23
2019-01-18T04:03:42.502Z,99824.63
2019-01-18T04:06:13.421Z,99823.16
2019-01-18T04:08:57.262Z,99834.74
2019-01-18T04:11:28.737Z,99843.26
2019-01-18T04:14:00.394Z,99854.54
2019-01-18T04:16:35.528Z,99857.67
2019-01-18T04:19:06.347Z,99861.71
2019-01-18T04:21:39.970Z,99871.87
2019-01-18T04:24:17.384Z,99880.53
2019-01-18T04:26:53.466Z,99884.91
2019-01-18T04:29:24.181Z,99890.19
2019-01-18T04:31:59.372Z,99894.02
2019-01-18T04:34:31.533Z,99903.16
2019-01-18T04:37:06.193Z,99907.66
2019-01-18T04:39:40.475Z,99910.27
2019-01-18T04:42:32.162Z,99916.59
2019-01-18T04:45:05.293Z,99914.23
2019-01-18T04:47:40.364Z,99916.83
2019-01-18T04:50:16.991Z,99929.84
2019-01-18T04:52:50.188Z,99933.11
2019-01-18T04:55:29.358Z,99929.97
2019-01-18T04:58:08.354Z,99931.53
2019-01-18T05:00:41.053Z,99939.72
2019-01-18T05:03:16.779Z,99949.23
2019-01-18T05:05:47.398Z,99960.03
2019-01-18T05:08:20.241Z,99967.91
2019-01-18T05:10:52.305Z,99965.44
2019-01-18T05:13:25.239Z,99972.48
2019-01-18T05:15:56.801Z,99985.16
2019-01-18T05:18:34.376Z,99990.10
2019-01-18T05:21:05.835Z,99995.27
2019-01-18T05:23:37.307Z,100000.88
2019-01-18T05:26:09.753Z,100003.53
2019-01-18T05:28:49.877Z,100011.92
2019-01-18T05:31:23.508Z,100018.20
2019-01-18T05:33:56.183Z,100029.13
2019-01-18T05:36:29.542Z,100027.99
2019-01-18T05:39:00.720Z,100039.25
2019-01-18T05:41:33.205Z,100038.70
2019-01-18T05:44:07.309Z,100040.52
2019-01-18T05:46:39.615Z,100053.58
2019-01-18T05:49:14.364Z,100046.59
2019-01-18T05:51:48.070Z,100065.64
2019-01-18T05:54:26.428Z,100064.39
2019-01-18T05:56:57.371Z,100066.12
2019-01-18T05:59:37.644Z,100071.01
2019-01-18T06:02:08.905Z,100085.14
2019-01-18T06:04:47.495Z,100088.02
2019-01-18T06:07:18.967Z,100089.29
2019-01-18T06:11:10.787Z,100100.36
2019-01-18T06:12:35.968Z,100109.69
2019-01-18T06:15:07.822Z,100107.36
2019-01-18T06:17:44.396Z,100117.04
2019-01-18T06:20:21.618Z,100122.53
2019-01-18T06:22:55.498Z,100131.05
2019-01-18T06:25:41.078Z,100138.33
2019-01-18T06:28:09.977Z,100143.56
2019-01-18T06:30:43.972Z,100148.48
2019-01-18T06:33:15.124Z,100157.31
2019-01-18T06:35:47.695Z,100167.20
2019-01-18T06:38:20.069Z,100168.80
2019-01-18T06:40:55.221Z,100173.02
2019-01-18T06:43:31.775Z,100179.36
2019-01-18T06:46:04.882Z,100188.16
2019-01-18T06:48:37.585Z,100195.06
2019-01-18T06:51:12.296Z,100205.71
2019-01-18T06:53:46.600Z,100208.81
2019-01-18T06:56:24.903Z,100214.38
2019-01-18T06:59:03.633Z,100222.27
2019-01-18T07:01:35.590Z,100234.32
2019-01-18T07:04:08.276Z,100233.88
2019-01-18T07:06:56.433Z,100247.46
2019-01-18T07:09:32.068Z,100245.39
2019-01-18T07:12:06.389Z,100252.34
2019-01-18T07:14:54.638Z,100265.63
2019-01-18T07:17:35.434Z,100268.30
2019-01-18T07:20:11.668Z,100266.44
2019-01-18T07:22:42.929Z,100274.55
2019-01-18T07:25:30.429Z,100275.96
2019-01-18T07:28:03.892Z,100277.80
2019-01-18T07:30:43.365Z,100284.09
2019-01-18T07:33:19.732Z,100289.77
2019-01-18T07:35:50.881Z,100297.39
2019-01-18T07:38:26.310Z,100298.33
2019-01-18T07:40:57.188Z,100306.16
2019-01-18T07:43:32.687Z,100315.42
2019-01-18T07:46:10.215Z,100324.23
2019-01-18T07:48:42.781Z,100323.86
2019-01-18T07:51:20.786Z,100338.86
2019-01-18T07:53:54.504Z,100340.97
2019-01-18T07:56:27.081Z,100354.36
2019-01-18T07:58:59.738Z,100353.55
2019-01-18T08:01:32.468Z,100368.08
2019-01-18T08:04:07.310Z,100368.06
2019-01-18T08:06:42.129Z,100366.34
2019-01-18T08:09:13.057Z,100374.37
2019-01-18T08:14:48.397Z,100401.24
2019-01-18T08:17:23.959Z,100407.88
2019-01-18T08:19:59.425Z,100411.93
2019-01-18T08:22:35.772Z,100416.66
2019-01-18T08:25:08.150Z,100421.33
2019-01-18T08:27:44.742Z,100428.05
2019-01-18T08:30:24.725Z,100438.61
2019-01-18T08:32:58.322Z,100438.23
2019-01-18T08:35:31.953Z,100455.82
2019-01-18T08:38:11.431Z,100459.42
2019-01-18T08:40:47.589Z,100470.95
2019-01-18T08:43:29.021Z,100472.33
2019-01-18T08:46:05.490Z,100474.02
2019-01-18T08:48:37.104Z,100474.03
2019-01-18T08:51:14.633Z,100471.83
2019-01-18T08:53:48.934Z,100474.70
2019-01-18T08:56:32.935Z,100485.14
2019-01-18T08:59:12.978Z,100495.92
2019-01-18T09:01:41.744Z,100495.34
2019-01-18T09:04:19.481Z,100492.92
2019-01-18T09:06:56.037Z,100498.75
2019-01-18T09:09:32.594Z,100500.25
2019-01-18T09:12:12.588Z,100509.58
2019-01-18T09:14:46.225Z,100511.53
2019-01-18T09:17:30.994Z,100516.92
2019-01-18T09:20:03.689Z,100520.53
2019-01-18T09:22:35.870Z,100518.92
2019-01-18T09:25:31.064Z,100530.16
2019-01-18T09:28:14.260Z,100530.88
2019-01-18T09:30:54.280Z,100534.34
2019-01-18T09:33:24.130Z,100540.13
2019-01-18T09:36:05.673Z,100541.34
2019-01-18T09:38:36.478Z,100540.68
2019-01-18T09:41:12.537Z,100542.75
2019-01-18T09:43:48.824Z,100546.00
2019-01-18T09:46:22.464Z,100553.22
2019-01-18T09:49:07.550Z,100557.12
2019-01-18T09:55:43.771Z,100560.80
2019-01-18T09:58:24.790Z,100561.38
2019-01-18T10:01:00.135Z,100576.02
2019-01-18T10:03:56.001Z,100562.17
2019-01-18T10:06:31.264Z,100574.17
2019-01-18T10:09:22.132Z,100576.37
2019-01-18T10:12:57.001Z,100571.53
2019-01-18T10:15:47.057Z,100576.89
2019-01-18T10:18:27.319Z,100580.16
2019-01-18T10:21:10.877Z,100578.25
2019-01-18T10:23:53.567Z,100572.43
2019-01-18T10:26:50.306Z,100578.05
2019-01-18T10:29:19.850Z,100571.78
2019-01-18T10:31:56.173Z,100571.99
2019-01-18T10:34:48.650Z,100569.31
2019-01-18T10:37:22.468Z,100571.28
2019-01-18T10:40:05.960Z,100566.75
2019-01-18T10:42:36.289Z,100570.63
2019-01-18T10:45:19.333Z,100569.34
2019-01-18T10:48:00.584Z,100561.22
2019-01-18T10:50:51.770Z,100556.99
2019-01-18T10:53:22.537Z,100561.78
2019-01-18T10:56:02.515Z,100563.99
2019-01-18T10:58:33.824Z,100565.92
2019-01-18T11:01:08.630Z,100575.05
2019-01-18T11:03:42.954Z,100580.16
2019-01-18T11:06:17.500Z,100582.78
2019-01-18T11:08:54.652Z,100584.47
2019-01-18T11:11:30.095Z,100584.39
2019-01-18T11:14:04.502Z,100587.26
2019-01-18T11:16:38.371Z,100583.43
2019-01-18T11:19:13.764Z,100580.77
2019-01-18T11:21:49.532Z,100582.23
2019-01-18T11:24:28.940Z,100585.95
2019-01-18T11:27:06.458Z,100590.98
2019-01-18T11:29:39.513Z,100586.02
2019-01-18T11:32:35.365Z,100588.27
2019-01-18T11:35:18.559Z,100590.14
2019-01-18T11:38:13.357Z,100584.75
2019-01-18T11:40:45.563Z,100582.80
2019-01-18T11:43:25.471Z,100584.71
2019-01-18T11:46:02.726Z,100579.09
2019-01-18T11:48:37.703Z,100578.05
2019-01-18T11:51:11.078Z,100589.84
2019-01-18T11:53:51.857Z,100589.23
2019-01-18T11:56:35.378Z,100592.91
2019-01-18T11:59:02.545Z,100593.29
2019-01-18T12:04:36.612Z,100593.85
2019-01-18T12:07:37.150Z,100599.84
2019-01-18T12:10:21.546Z,100590.69
2019-01-18T12:13:46.928Z,100592.53
2019-01-18T12:16:08.581Z,100599.11
2019-01-18T12:18:43.211Z,100598.30
2019-01-18T12:21:16.971Z,100601.42
2019-01-18T12:23:51.092Z,100606.03
2019-01-18T12:26:22.448Z,100596.72
2019-01-18T12:29:00.580Z,100598.23
2019-01-18T12:31:35.503Z,100593.84
2019-01-18T12:34:33.011Z,100596.07
2019-01-18T12:37:26.908Z,100597.81
2019-01-18T12:40:07.208Z,100602.86
2019-01-18T12:42:42.625Z,100607.36
2019-01-18T12:45:25.558Z,100609.67
2019-01-18T12:47:57.613Z,100608.20
2019-01-18T12:50:42.475Z,100606.83
2019-01-18T12:54:23.541Z,100601.98
2019-01-18T12:55:59.400Z,100607.91
2019-01-18T12:58:37.300Z,100609.75
2019-01-18T13:01:21.547Z,100607.80
2019-01-18T13:04:12.781Z,100607.63
2019-01-18T13:06:57.226Z,100612.33
2019-01-18T13:14:17.136Z,100608.00
2019-01-18T13:17:37.987Z,100612.17
2019-01-18T13:23:51.379Z,100601.94
2019-01-18T13:26:38.306Z,100599.75
2019-01-18T13:29:09.296Z,100604.58
2019-01-18T13:31:44.066Z,100602.86
2019-01-18T13:34:16.902Z,100605.63
2019-01-18T13:36:54.404Z,100605.16
2019-01-18T13:39:30.299Z,100602.05
2019-01-18T13:42:05.243Z,100606.42
2019-01-18T13:44:43.637Z,100602.52
2019-01-18T13:47:18.543Z,100603.95
2019-01-18T13:49:51.354Z,100612.73
2019-01-18T13:52:23.820Z,100611.66
2019-01-18T13:54:57.817Z,100612.90
2019-01-18T13:57:38.533Z,100611.86
2019-01-18T14:00:19.988Z,100612.98
2019-01-18T14:02:51.763Z,100617.08
2019-01-18T14:05:31.524Z,100610.03
2019-01-18T14:08:22.337Z,100617.80
2019-01-18T14:10:59.202Z,100613.46
2019-01-18T14:13:37.550Z,100618.09
2019-01-18T14:16:11.223Z,100619.81
2019-01-18T14:18:44.508Z,100624.55
2019-01-18T14:21:15.789Z,100625.20
2019-01-18T14:23:53.622Z,100624.45
2019-01-18T14:26:25.172Z,100624.42
2019-01-18T14:28:57.888Z,100625.50
2019-01-18T14:31:34.552Z,100626.69
2019-01-18T14:34:06.564Z,100631.01
2019-01-18T14:36:39.278Z,100625.53
2019-01-18T14:39:15.997Z,100627.45
2019-01-18T14:41:48.793Z,100636.25
2019-01-18T14:47:32.217Z,100636.28
2019-01-18T14:50:27.412Z,100640.22
2019-01-18T14:53:04.707Z,100638.84
2019-01-18T14:55:42.297Z,100637.89
2019-01-18T14:58:37.285Z,100637.97
2019-01-18T15:00:47.695Z,100647.23
2019-01-18T15:03:25.236Z,100641.17
2019-01-18T15:05:53.303Z,100636.17
2019-01-18T15:08:33.314Z,100640.72
2019-01-18T15:11:07.321Z,100633.61
2019-01-18T15:13:47.205Z,100643.03
2019-01-18T15:16:35.161Z,100648.50
2019-01-18T15:19:06.492Z,100649.59
2019-01-18T15:21:37.900Z,100647.28
2019-01-18T15:24:13.450Z,100653.34
2019-01-18T15:26:44.467Z,100654.05
2019-01-18T15:29:15.321Z,100652.02
2019-01-18T15:31:47.747Z,100657.85
2019-01-18T15:34:24.110Z,100659.44
2019-01-18T15:37:00.815Z,100662.16
2019-01-18T15:39:32.440Z,100651.77
2019-01-18T15:42:08.138Z,100649.84
2019-01-18T15:44:41.421Z,100648.77
2019-01-18T15:47:14.402Z,100654.19
2019-01-18T15:49:45.303Z,100649.16
2019-01-18T15:52:16.442Z,100660.20
2019-01-18T15:54:53.118Z,100662.42
2019-01-18T15:57:26.778Z,100663.84
2019-01-18T15:59:58.097Z,100667.93
2019-01-18T16:02:35.811Z,100670.06
2019-01-18T16:05:10.042Z,100675.13
2019-01-18T16:07:46.608Z,100678.95
2019-01-18T16:10:21.386Z,100680.78
2019-01-18T16:13:15.320Z,100685.04
2019-01-18T16:16:20.348Z,100689.95
2019-01-18T16:19:01.527Z,100684.30
2019-01-18T16:21:33.691Z,100686.16
2019-01-18T16:24:05.696Z,100692.09
2019-01-18T16:26:40.331Z,100693.61
2019-01-18T16:29:13.063Z,100693.81
2019-01-18T16:31:46.515Z,100691.53
2019-01-18T16:34:17.353Z,100689.84
2019-01-18T16:36:49.335Z,100694.17
2019-01-18T16:39:24.544Z,100685.44
2019-01-18T16:41:56.462Z,100686.14
2019-01-18T16:44:31.663Z,100687.47
2019-01-18T16:47:02.764Z,100683.94
2019-01-18T16:49:33.667Z,100679.33
2019-01-18T16:52:07.506Z,100687.94
2019-01-18T16:54:41.206Z,100686.20
2019-01-18T16:57:12.333Z,100681.91
2019-01-18T16:59:45.800Z,100688.10
2019-01-18T17:02:17.882Z,100683.66
2019-01-18T17:04:48.613Z,100691.05
2019-01-18T17:07:22.666Z,100688.06
2019-01-18T17:09:53.459Z,100689.49
2019-01-18T17:12:24.741Z,100685.11
2019-01-18T17:14:55.513Z,100689.52
2019-01-18T17:17:32.602Z,100685.84
2019-01-18T17:20:03.310Z,100689.20
2019-01-18T17:22:35.304Z,100694.84
2019-01-18T17:25:08.494Z,100697.44
2019-01-18T17:27:39.320Z,100693.52
2019-01-18T17:30:16.777Z,100692.89
2019-01-18T17:32:47.582Z,100694.36
2019-01-18T17:35:44.600Z,100684.52
2019-01-18T17:38:31.310Z,100693.06
2019-01-18T17:41:19.182Z,100692.81
2019-01-18T17:44:54.489Z,100695.23
2019-01-18T17:47:51.344Z,100698.78
2019-01-18T17:51:10.538Z,100701.04
2019-01-18T17:54:13.278Z,100692.84
2019-01-18T17:57:27.124Z,100702.88
2019-01-18T18:00:54.794Z,100708.75
2019-01-18T18:04:21.739Z,100701.76
2019-01-18T18:08:10.102Z,100706.83
2019-01-18T18:11:30.908Z,100703.69
2019-01-18T18:14:33.183Z,100715.67
2019-01-18T18:17:44.490Z,100714.03
2019-01-18T18:21:07.155Z,100717.69
2019-01-18T18:24:37.756Z,100714.47
2019-01-18T18:28:14.764Z,100714.23
2019-01-18T18:31:19.777Z,100706.10
2019-01-18T18:34:52.927Z,100706.73
2019-01-18T18:38:36.622Z,100705.83
2019-01-18T18:42:04.028Z,100714.59
2019-01-18T18:45:37.859Z,100717.08
2019-01-18T18:49:04.253Z,100719.92
2019-01-18T18:52:37.625Z,100723.92
2019-01-18T18:56:14.487Z,100725.09
2019-01-18T19:00:12.147Z,100727.70
2019-01-18T19:03:43.387Z,100731.33
2019-01-18T19:07:03.977Z,100736.86
2019-01-18T19:10:50.065Z,100732.42
2019-01-18T19:14:14.294Z,100728.60
2019-01-18T19:17:39.681Z,100730.53
2019-01-18T19:20:48.676Z,100739.55
2019-01-18T19:24:48.749Z,100733.58
2019-01-18T19:28:12.148Z,100733.41
2019-01-18T19:31:44.867Z,100737.86
2019-01-18T19:35:17.518Z,100735.08
2019-01-18T19:38:47.948Z,100734.74
2019-01-18T19:41:48.402Z,100741.48
2019-01-18T19:45:52.069Z,100744.72
2019-01-18T19:49:42.902Z,100741.63
2019-01-18T19:54:14.073Z,100745.73
2019-01-18T19:56:46.177Z,100750.56
2019-01-18T20:00:32.779Z,100758.38
2019-01-18T20:04:11.657Z,100758.52
2019-01-18T20:07:44.020Z,100758.39
2019-01-18T20:11:29.091Z,100762.78
2019-01-18T20:14:51.651Z,100764.14
2019-01-18T20:26:31.918Z,100768.55
2019-01-18T20:30:25.075Z,100765.63
2019-01-18T20:33:56.863Z,100769.97
2019-01-18T20:37:53.167Z,100771.03
2019-01-18T20:40:52.544Z,100774.40
2019-01-18T20:44:20.804Z,100768.52
2019-01-18T20:47:59.961Z,100774.87
2019-01-18T20:51:09.382Z,100774.20
2019-01-18T20:55:10.849Z,100772.45
2019-01-18T20:58:18.311Z,100780.77
2019-01-18T21:01:51.162Z,100774.94
2019-01-18T21:05:33.825Z,100774.53
2019-01-18T21:09:25.521Z,100779.63
2019-01-18T21:12:44.404Z,100779.47
2019-01-18T21:17:18.358Z,100779.41
2019-01-18T21:21:21.056Z,100780.63
2019-01-18T21:24:35.247Z,100781.36
2019-01-18T21:27:52.379Z,100776.80
2019-01-18T21:31:16.072Z,100774.72
2019-01-18T21:34:35.858Z,100768.26
2019-01-18T21:38:18.462Z,100775.66
2019-01-18T21:41:14.061Z,100776.86
2019-01-18T21:45:03.958Z,100782.11
2019-01-18T21:48:23.526Z,100786.91
2019-01-18T21:52:02.926Z,100783.28
2019-01-18T21:55:47.305Z,100782.34
2019-01-18T21:59:02.352Z,100782.34
2019-01-18T22:02:49.342Z,100789.67
2019-01-18T22:06:14.710Z,100788.83
2019-01-18T22:09:34.457Z,100781.36
2019-01-18T22:14:12.920Z,100783.61
2019-01-18T22:16:56.083Z,100786.75
2019-01-18T22:20:21.962Z,100789.61
2019-01-18T22:23:58.789Z,100792.87
2019-01-18T22:27:28.409Z,100783.33
2019-01-18T22:31:12.060Z,100783.45
2019-01-18T22:34:35.516Z,100787.89
2019-01-18T22:37:52.785Z,100783.72
2019-01-18T22:42:22.668Z,100785.19
2019-01-18T22:45:41.787Z,100789.02
2019-01-18T22:49:04.523Z,100784.10
2019-01-18T22:52:37.520Z,100792.70
2019-01-18T22:56:13.272Z,100786.67
2019-01-18T22:59:43.058Z,100782.97
2019-01-18T23:07:15.082Z,100783.99
2019-01-18T23:10:24.968Z,100783.51
2019-01-18T23:13:38.236Z,100791.38
2019-01-18T23:17:30.887Z,100789.55
2019-01-18T23:21:19.535Z,100780.67
2019-01-18T23:24:42.051Z,100781.15
2019-01-18T23:28:20.540Z,100783.60
2019-01-18T23:31:16.055Z,100783.73
2019-01-18T23:34:51.685Z,100780.61
2019-01-18T23:38:15.116Z,100784.30
2019-01-18T23:41:29.054Z,100777.45
2019-01-18T23:44:47.607Z,100776.44
2019-01-18T23:48:06.630Z,100778.23
2019-01-18T23:51:32.338Z,100781.84
2019-01-18T23:54:53.360Z,100778.34
2019-01-18T23:58:15.272Z,100779.70
